Terminal Aerodrome Forecast
Issued by NWS Shreveport, LA

Home | Current Version | Previous Version | Text Only | Print | Product List | Glossary On
Versions: 1 2 3 4 5 6 7 8 9 10 11 12 13 14 15 16 17 18
966
FTUS44 KSHV 241122
TAFELD
TAF
KELD 241122Z 2412/2512 VRB03KT P6SM SCT050 BKN100 BKN250
      TEMPO 2412/2413 3SM BR
     FM241500 VRB04KT P6SM SCT035 BKN120 BKN250
     FM241700 VRB05KT P6SM VCTS SCT045CB SCT140 SCT250
     FM250300 00000KT P6SM SCT150 BKN250=

USA.gov is the U.S. government's official web portal to all federal, state and local government web resources and services.